Time;durP1;ratioP1;P1;durP2;ratioP2;P2;SDS_P1;SDS_P2;PMS_P1;PMS_P2;Temp;Humidity;BMP_temperature;BMP_pressure;BME280_temperature;BME280_humidity;BME280_pressure;Samples;Min_cycle;Max_cycle;Signal;HPM_P1;HPM_P2
2021/10/27 00:02:16;;;;;;;8.75;6.93;;;;;;;;;;5072988;28;20025;-62
2021/10/27 00:04:41;;;;;;;9.93;7.25;;;;;;;;;;5072647;28;20032;-62
2021/10/27 00:07:06;;;;;;;7.30;6.53;;;;;;;;;;5072608;28;20032;-63
2021/10/27 00:09:31;;;;;;;10.25;6.43;;;;;;;;;;5072394;28;20112;-62
2021/10/27 00:11:57;;;;;;;10.20;6.38;;;;;;;;;;5069097;28;20259;-62
2021/10/27 00:14:22;;;;;;;7.80;6.53;;;;;;;;;;5068099;28;20056;-63
2021/10/27 00:16:48;;;;;;;9.25;6.63;;;;;;;;;;5072228;28;20039;-63
2021/10/27 00:19:13;;;;;;;7.25;5.90;;;;;;;;;;5073047;28;20020;-63
2021/10/27 00:21:38;;;;;;;10.30;6.60;;;;;;;;;;5071937;28;20047;-58
2021/10/27 00:24:03;;;;;;;7.95;6.55;;;;;;;;;;5072057;28;20025;-62
2021/10/27 00:26:28;;;;;;;10.35;6.50;;;;;;;;;;5071373;28;20026;-63
2021/10/27 00:28:54;;;;;;;9.00;6.75;;;;;;;;;;5069072;28;20094;-61
2021/10/27 00:31:20;;;;;;;8.75;7.25;;;;;;;;;;5071078;28;20024;-59
2021/10/27 00:33:45;;;;;;;9.07;7.07;;;;;;;;;;5071502;28;20108;-64
2021/10/27 00:36:11;;;;;;;10.07;7.03;;;;;;;;;;5071721;28;20116;-62
2021/10/27 00:38:36;;;;;;;10.65;7.22;;;;;;;;;;5070826;28;20391;-62
2021/10/27 00:41:02;;;;;;;9.70;6.68;;;;;;;;;;5071744;28;20024;-62
2021/10/27 00:43:27;;;;;;;8.43;6.93;;;;;;;;;;5072083;28;20481;-63
2021/10/27 00:45:52;;;;;;;8.43;7.25;;;;;;;;;;5071986;28;20023;-63
2021/10/27 00:48:17;;;;;;;8.05;6.80;;;;;;;;;;5072101;28;20016;-62
2021/10/27 00:50:43;;;;;;;9.85;6.82;;;;;;;;;;5071798;28;20036;-62
2021/10/27 00:53:08;;;;;;;8.70;7.80;;;;;;;;;;5071103;28;20073;-62
2021/10/27 00:55:33;;;;;;;11.07;7.25;;;;;;;;;;5071786;28;20028;-63
2021/10/27 00:57:58;;;;;;;10.60;7.38;;;;;;;;;;5066780;28;20020;-61
2021/10/27 01:00:24;;;;;;;9.65;7.78;;;;;;;;;;5071400;28;20021;-62
2021/10/27 01:02:49;;;;;;;10.48;7.13;;;;;;;;;;5071746;28;20035;-58
2021/10/27 01:05:16;;;;;;;9.73;7.93;;;;;;;;;;5072287;28;20016;-62
2021/10/27 01:07:41;;;;;;;10.73;7.90;;;;;;;;;;5071742;28;20024;-59
2021/10/27 01:10:06;;;;;;;12.23;7.90;;;;;;;;;;5086834;28;20028;-62
2021/10/27 01:12:31;;;;;;;10.18;8.07;;;;;;;;;;5061619;28;20037;-63
2021/10/27 01:14:57;;;;;;;9.93;7.20;;;;;;;;;;5071413;28;20029;-60
2021/10/27 01:17:22;;;;;;;9.55;7.72;;;;;;;;;;5071797;28;20035;-62
2021/10/27 01:19:48;;;;;;;9.82;7.00;;;;;;;;;;5071257;28;20211;-63
2021/10/27 01:22:14;;;;;;;11.75;8.35;;;;;;;;;;5070827;28;20107;-63
2021/10/27 01:24:39;;;;;;;12.38;8.65;;;;;;;;;;5071457;28;20029;-63
2021/10/27 01:27:04;;;;;;;10.90;8.52;;;;;;;;;;5069084;28;20043;-62
2021/10/27 01:29:29;;;;;;;11.10;8.00;;;;;;;;;;5070834;28;20052;-62
2021/10/27 01:31:55;;;;;;;12.07;9.25;;;;;;;;;;5071200;28;20078;-63
2021/10/27 01:34:20;;;;;;;9.57;8.20;;;;;;;;;;5070240;28;20068;-63
2021/10/27 01:36:45;;;;;;;13.50;9.45;;;;;;;;;;5070707;28;20042;-63
2021/10/27 01:39:10;;;;;;;11.35;9.18;;;;;;;;;;5070828;28;20040;-62
2021/10/27 01:41:36;;;;;;;11.38;9.93;;;;;;;;;;5071428;28;20111;-63
2021/10/27 01:44:01;;;;;;;12.85;9.73;;;;;;;;;;5071094;28;20126;-62
2021/10/27 01:46:27;;;;;;;15.40;10.45;;;;;;;;;;5069840;28;20016;-63
2021/10/27 01:48:53;;;;;;;12.48;9.23;;;;;;;;;;5071886;28;20042;-63
2021/10/27 01:51:18;;;;;;;12.98;10.70;;;;;;;;;;5071405;28;20054;-63
2021/10/27 01:53:43;;;;;;;13.90;9.93;;;;;;;;;;5070314;28;20025;-63
2021/10/27 01:56:08;;;;;;;12.85;10.57;;;;;;;;;;5071363;28;20527;-61
2021/10/27 01:58:33;;;;;;;14.05;10.38;;;;;;;;;;5068409;28;20033;-63
2021/10/27 02:00:59;;;;;;;12.43;9.73;;;;;;;;;;5070833;28;20477;-63
2021/10/27 02:03:24;;;;;;;14.43;11.82;;;;;;;;;;5070991;28;20496;-63
2021/10/27 02:05:49;;;;;;;12.95;10.48;;;;;;;;;;5071519;28;20024;-64
2021/10/27 02:08:14;;;;;;;11.68;10.00;;;;;;;;;;5069537;28;20036;-63
2021/10/27 02:10:39;;;;;;;12.32;10.63;;;;;;;;;;5070683;28;20027;-62
2021/10/27 02:13:05;;;;;;;12.77;10.95;;;;;;;;;;5066436;28;20106;-63
2021/10/27 02:15:30;;;;;;;12.60;10.32;;;;;;;;;;5070980;28;20072;-62
2021/10/27 02:17:56;;;;;;;11.05;9.82;;;;;;;;;;5071350;28;20025;-63
2021/10/27 02:20:21;;;;;;;13.55;10.38;;;;;;;;;;5070843;28;20028;-59
2021/10/27 02:22:47;;;;;;;14.10;10.77;;;;;;;;;;5070917;28;20024;-62
2021/10/27 02:25:12;;;;;;;12.45;11.15;;;;;;;;;;5070751;28;20032;-61
2021/10/27 02:27:37;;;;;;;13.18;11.00;;;;;;;;;;5073095;28;20499;-63
2021/10/27 02:30:03;;;;;;;14.63;11.90;;;;;;;;;;5072409;28;20028;-62
2021/10/27 02:32:28;;;;;;;13.77;11.45;;;;;;;;;;5074579;28;20011;-63
2021/10/27 02:34:53;;;;;;;14.25;11.63;;;;;;;;;;5073187;28;20024;-63
2021/10/27 02:37:18;;;;;;;13.60;11.45;;;;;;;;;;5074082;28;20063;-63
2021/10/27 02:39:44;;;;;;;14.20;12.23;;;;;;;;;;5072843;28;20027;-63
2021/10/27 02:42:09;;;;;;;15.60;12.27;;;;;;;;;;5073017;28;20044;-64
2021/10/27 02:44:36;;;;;;;15.23;11.70;;;;;;;;;;5074032;28;20063;-59
2021/10/27 02:47:01;;;;;;;15.23;12.25;;;;;;;;;;5074036;28;20044;-58
2021/10/27 02:49:27;;;;;;;14.68;11.88;;;;;;;;;;5074233;28;20029;-62
2021/10/27 02:51:52;;;;;;;13.57;12.00;;;;;;;;;;5073645;28;20052;-62
2021/10/27 02:54:17;;;;;;;15.35;12.32;;;;;;;;;;5073835;28;20103;-62
2021/10/27 02:56:42;;;;;;;14.40;11.52;;;;;;;;;;5072875;28;20028;-61
2021/10/27 02:59:08;;;;;;;15.02;11.52;;;;;;;;;;5071483;28;20035;-63
2021/10/27 03:01:33;;;;;;;16.33;11.88;;;;;;;;;;5073528;28;20060;-62
2021/10/27 03:04:00;;;;;;;14.23;12.65;;;;;;;;;;5073128;28;20078;-63
2021/10/27 03:06:25;;;;;;;17.90;12.52;;;;;;;;;;5073947;28;20040;-62
2021/10/27 03:08:51;;;;;;;14.35;12.77;;;;;;;;;;5073502;28;20063;-63
2021/10/27 03:11:16;;;;;;;15.52;11.85;;;;;;;;;;5073444;28;20378;-63
2021/10/27 03:13:42;;;;;;;15.32;11.70;;;;;;;;;;5073887;28;20024;-61
2021/10/27 03:16:07;;;;;;;14.80;12.38;;;;;;;;;;5080504;28;20178;-63
2021/10/27 03:18:32;;;;;;;16.83;13.88;;;;;;;;;;5073582;28;20054;-62
2021/10/27 03:20:58;;;;;;;17.35;13.60;;;;;;;;;;5073065;28;20389;-60
2021/10/27 03:23:23;;;;;;;16.42;13.45;;;;;;;;;;5072564;28;20043;-64
2021/10/27 03:25:48;;;;;;;17.35;13.23;;;;;;;;;;5072667;28;20020;-63
2021/10/27 03:28:14;;;;;;;15.93;14.10;;;;;;;;;;5069997;28;20128;-62
2021/10/27 03:30:39;;;;;;;14.48;12.35;;;;;;;;;;5071959;28;20052;-63
2021/10/27 03:33:04;;;;;;;15.52;12.90;;;;;;;;;;5073213;28;20024;-63
2021/10/27 03:35:29;;;;;;;15.18;12.57;;;;;;;;;;5073191;28;20024;-63
2021/10/27 03:37:54;;;;;;;15.02;13.27;;;;;;;;;;5073594;28;20021;-63
2021/10/27 03:40:20;;;;;;;14.82;12.68;;;;;;;;;;5072788;28;20051;-62
2021/10/27 03:42:45;;;;;;;14.10;10.95;;;;;;;;;;5072378;28;20024;-63
2021/10/27 03:45:10;;;;;;;13.50;11.00;;;;;;;;;;5073025;28;20496;-59
2021/10/27 03:47:36;;;;;;;12.75;11.15;;;;;;;;;;5073459;28;20020;-62
2021/10/27 03:50:03;;;;;;;13.63;10.88;;;;;;;;;;5071456;28;20031;-62
2021/10/27 03:52:28;;;;;;;14.35;11.13;;;;;;;;;;5072812;28;20020;-63
2021/10/27 03:54:54;;;;;;;11.57;10.05;;;;;;;;;;5072610;28;20384;-63
2021/10/27 03:57:19;;;;;;;12.18;10.55;;;;;;;;;;5069312;28;20055;-62
2021/10/27 03:59:44;;;;;;;11.88;10.15;;;;;;;;;;5071347;28;20031;-62
2021/10/27 04:02:10;;;;;;;14.02;10.07;;;;;;;;;;5072507;28;20035;-63
2021/10/27 04:04:35;;;;;;;12.02;9.75;;;;;;;;;;5073305;28;20012;-62
2021/10/27 04:07:00;;;;;;;13.23;10.60;;;;;;;;;;5072550;28;20048;-59
2021/10/27 04:09:26;;;;;;;14.57;10.13;;;;;;;;;;5071998;28;20024;-63
2021/10/27 04:11:51;;;;;;;12.32;9.32;;;;;;;;;;5072793;28;20543;-62
2021/10/27 04:14:16;;;;;;;10.30;9.10;;;;;;;;;;5064094;28;20032;-63
2021/10/27 04:16:41;;;;;;;12.20;9.05;;;;;;;;;;5071031;28;20111;-62
2021/10/27 04:19:07;;;;;;;11.30;10.10;;;;;;;;;;5071175;28;20492;-63
2021/10/27 04:21:32;;;;;;;14.18;10.15;;;;;;;;;;5071576;28;20024;-61
2021/10/27 04:23:57;;;;;;;12.60;10.85;;;;;;;;;;5072395;28;20457;-63
2021/10/27 04:26:23;;;;;;;12.77;10.43;;;;;;;;;;5072395;28;20027;-62
2021/10/27 04:28:49;;;;;;;13.90;9.60;;;;;;;;;;5067841;28;20053;-63
2021/10/27 04:31:14;;;;;;;13.18;9.88;;;;;;;;;;5071530;28;20073;-62
2021/10/27 04:33:40;;;;;;;12.23;10.18;;;;;;;;;;5072629;28;20111;-63
2021/10/27 04:36:05;;;;;;;11.38;9.82;;;;;;;;;;5072201;28;20020;-62
2021/10/27 04:38:30;;;;;;;11.18;9.43;;;;;;;;;;5071557;28;20017;-61
2021/10/27 04:40:55;;;;;;;11.80;9.57;;;;;;;;;;5071485;28;20129;-62
2021/10/27 04:43:20;;;;;;;10.38;9.27;;;;;;;;;;5072388;28;20566;-62
2021/10/27 04:45:46;;;;;;;11.25;9.68;;;;;;;;;;5071550;28;20028;-62
2021/10/27 04:48:13;;;;;;;13.15;9.70;;;;;;;;;;5072007;28;20025;-63
2021/10/27 04:50:38;;;;;;;12.82;9.68;;;;;;;;;;5070686;28;20032;-61
2021/10/27 04:53:10;;;;;;;11.90;9.75;;;;;;;;;;5070185;28;20028;-62
2021/10/27 04:55:35;;;;;;;10.13;9.13;;;;;;;;;;5072138;28;20036;-62
2021/10/27 04:58:00;;;;;;;10.25;9.07;;;;;;;;;;5068711;28;20119;-60
2021/10/27 05:00:26;;;;;;;12.30;9.70;;;;;;;;;;5070389;28;20097;-63
2021/10/27 05:02:51;;;;;;;10.48;8.57;;;;;;;;;;5071336;28;20032;-62
2021/10/27 05:05:17;;;;;;;10.88;9.35;;;;;;;;;;5072134;28;20035;-62
2021/10/27 05:07:44;;;;;;;10.07;8.77;;;;;;;;;;5071645;28;20029;-63
2021/10/27 05:10:09;;;;;;;10.52;9.55;;;;;;;;;;5071058;28;20028;-63
2021/10/27 05:12:34;;;;;;;10.48;9.38;;;;;;;;;;5071251;28;20097;-62
2021/10/27 05:15:00;;;;;;;11.50;8.52;;;;;;;;;;5071732;28;20056;-63
2021/10/27 05:17:25;;;;;;;12.05;9.10;;;;;;;;;;5071847;28;20106;-62
2021/10/27 05:19:51;;;;;;;11.10;8.90;;;;;;;;;;5071042;28;20103;-63
2021/10/27 05:22:16;;;;;;;11.60;8.88;;;;;;;;;;5069784;28;20021;-63
2021/10/27 05:24:42;;;;;;;10.80;9.15;;;;;;;;;;5071208;28;20495;-62
2021/10/27 05:27:08;;;;;;;10.60;9.30;;;;;;;;;;5068831;28;24532;-62
2021/10/27 05:29:33;;;;;;;13.05;9.80;;;;;;;;;;5069531;28;20053;-62
2021/10/27 05:31:58;;;;;;;12.02;9.27;;;;;;;;;;5069268;28;20070;-62
2021/10/27 05:34:24;;;;;;;10.98;9.30;;;;;;;;;;5071980;28;20054;-58
2021/10/27 05:36:50;;;;;;;10.43;8.75;;;;;;;;;;5071262;28;20016;-62
2021/10/27 05:39:16;;;;;;;11.85;8.80;;;;;;;;;;5071215;28;20024;-62
2021/10/27 05:41:44;;;;;;;14.23;8.52;;;;;;;;;;5071009;28;20046;-63
2021/10/27 05:44:09;;;;;;;10.43;9.35;;;;;;;;;;5071619;28;20115;-61
2021/10/27 05:46:34;;;;;;;11.82;9.23;;;;;;;;;;5069431;28;20055;-62
2021/10/27 05:49:15;;;;;;;10.35;9.25;;;;;;;;;;5071979;28;20044;-62
2021/10/27 05:51:56;;;;;;;9.77;8.40;;;;;;;;;;5070431;28;20078;-62
2021/10/27 05:57:05;;;;;;;10.07;7.55;;;;;;;;;;5068954;28;20119;-61
2021/10/27 05:59:31;;;;;;;10.55;8.55;;;;;;;;;;5070991;28;20100;-63
2021/10/27 06:01:56;;;;;;;10.02;8.45;;;;;;;;;;5070937;28;20021;-62
2021/10/27 06:04:21;;;;;;;10.80;8.32;;;;;;;;;;5071402;28;20530;-62
2021/10/27 06:06:47;;;;;;;9.18;7.88;;;;;;;;;;5073704;28;20021;-63
2021/10/27 06:09:13;;;;;;;9.23;7.00;;;;;;;;;;5073204;28;20571;-62
2021/10/27 06:11:38;;;;;;;8.57;7.50;;;;;;;;;;5074638;28;20546;-62
2021/10/27 06:14:04;;;;;;;8.82;7.93;;;;;;;;;;5073456;28;20032;-63
2021/10/27 06:16:30;;;;;;;10.27;7.85;;;;;;;;;;5070123;28;20031;-62
2021/10/27 06:18:56;;;;;;;9.10;7.60;;;;;;;;;;5071798;28;20460;-63
2021/10/27 06:21:21;;;;;;;9.82;7.47;;;;;;;;;;5074412;28;20047;-62
2021/10/27 06:23:46;;;;;;;28.25;8.57;;;;;;;;;;5073014;28;20468;-63
2021/10/27 06:26:12;;;;;;;9.35;7.43;;;;;;;;;;5075035;28;20028;-63
2021/10/27 06:28:56;;;;;;;11.13;7.80;;;;;;;;;;5068580;28;20489;-62
2021/10/27 06:31:32;;;;;;;8.35;6.75;;;;;;;;;;5074157;28;20070;-63
2021/10/27 06:34:18;;;;;;;8.63;6.55;;;;;;;;;;5074967;28;20144;-63
2021/10/27 06:47:04;;;;;;;6.78;6.07;;;;;;;;;;5074276;28;20032;-63
2021/10/27 06:49:31;;;;;;;5.90;5.30;;;;;;;;;;5069799;28;20033;-63
2021/10/27 06:51:56;;;;;;;9.00;4.22;;;;;;;;;;5069130;28;20473;-63
2021/10/27 06:54:22;;;;;;;8.32;5.40;;;;;;;;;;5073174;28;20037;-62
2021/10/27 06:56:47;;;;;;;4.10;2.40;;;;;;;;;;5069712;28;20045;-63
2021/10/27 06:59:25;;;;;;;7.78;5.47;;;;;;;;;;5070030;28;20128;-63
2021/10/27 07:14:56;;;;;;;5.47;4.90;;;;;;;;;;5063379;28;20039;-61
2021/10/27 07:17:29;;;;;;;5.75;5.15;;;;;;;;;;5069538;28;20519;-62
2021/10/27 07:19:55;;;;;;;7.40;5.40;;;;;;;;;;5059665;28;20032;-63
2021/10/27 07:22:20;;;;;;;7.18;4.90;;;;;;;;;;5058903;28;20033;-62
2021/10/27 07:24:45;;;;;;;6.70;3.15;;;;;;;;;;5060788;28;20025;-59
2021/10/27 07:27:12;;;;;;;7.78;4.38;;;;;;;;;;5053913;28;20108;-63
2021/10/27 07:29:37;;;;;;;6.95;4.32;;;;;;;;;;5060263;28;20045;-62
2021/10/27 07:32:05;;;;;;;4.53;4.13;;;;;;;;;;5059573;28;20031;-63
2021/10/27 07:34:34;;;;;;;4.70;3.67;;;;;;;;;;5064614;28;20437;-63
2021/10/27 07:42:24;;;;;;;4.80;4.20;;;;;;;;;;5064388;28;20087;-63
2021/10/27 07:44:49;;;;;;;5.00;4.20;;;;;;;;;;5067224;28;20028;-64
2021/10/27 07:47:14;;;;;;;6.15;4.07;;;;;;;;;;5063640;28;20244;-63
2021/10/27 07:49:39;;;;;;;5.53;4.90;;;;;;;;;;5058784;28;20110;-63
2021/10/27 07:52:06;;;;;;;6.65;4.00;;;;;;;;;;5057786;28;20029;-62
2021/10/27 07:54:31;;;;;;;3.92;3.53;;;;;;;;;;5057831;28;20070;-62
2021/10/27 07:56:56;;;;;;;4.10;3.40;;;;;;;;;;5057887;28;20028;-61
2021/10/27 07:59:22;;;;;;;4.97;4.22;;;;;;;;;;5066151;28;20028;-62
2021/10/27 08:01:47;;;;;;;4.88;3.45;;;;;;;;;;5060889;28;20179;-62
2021/10/27 08:04:13;;;;;;;5.57;4.20;;;;;;;;;;5062411;28;20044;-60
2021/10/27 08:06:38;;;;;;;7.18;3.28;;;;;;;;;;5062385;28;20052;-61
2021/10/27 08:09:03;;;;;;;6.88;4.07;;;;;;;;;;5067125;28;20100;-62
2021/10/27 08:11:29;;;;;;;5.05;4.00;;;;;;;;;;5066295;28;20039;-63
2021/10/27 08:13:55;;;;;;;6.38;3.85;;;;;;;;;;5067459;28;20115;-60
2021/10/27 08:16:20;;;;;;;5.00;3.17;;;;;;;;;;5067615;28;20044;-62
2021/10/27 08:18:45;;;;;;;4.57;3.60;;;;;;;;;;5059518;28;20167;-63
2021/10/27 08:21:11;;;;;;;4.72;3.80;;;;;;;;;;5057439;28;20124;-63
2021/10/27 08:23:40;;;;;;;6.22;3.97;;;;;;;;;;5056874;28;20115;-62
2021/10/27 08:26:09;;;;;;;5.20;4.00;;;;;;;;;;5067288;28;20510;-62
2021/10/27 08:28:40;;;;;;;7.28;3.85;;;;;;;;;;5061028;28;20061;-62
2021/10/27 08:35:56;;;;;;;4.65;3.08;;;;;;;;;;5060183;28;20032;-62
2021/10/27 08:38:22;;;;;;;7.15;3.78;;;;;;;;;;5066464;28;20029;-62
2021/10/27 08:40:48;;;;;;;4.32;3.60;;;;;;;;;;5066127;28;20028;-62
2021/10/27 08:43:13;;;;;;;3.60;3.22;;;;;;;;;;5067072;28;20679;-60
2021/10/27 08:45:39;;;;;;;5.88;4.20;;;;;;;;;;5066287;28;20119;-62
2021/10/27 08:48:07;;;;;;;3.92;3.53;;;;;;;;;;5065365;28;20028;-62
2021/10/27 08:50:32;;;;;;;3.42;3.13;;;;;;;;;;5063870;28;20283;-62
2021/10/27 08:52:57;;;;;;;4.55;3.65;;;;;;;;;;5066656;28;20043;-62
2021/10/27 08:55:23;;;;;;;4.38;3.97;;;;;;;;;;5061402;28;20031;-61
2021/10/27 08:57:51;;;;;;;4.68;4.07;;;;;;;;;;5063073;28;20031;-62
2021/10/27 09:08:19;;;;;;;5.50;3.60;;;;;;;;;;5061643;28;20039;-60
2021/10/27 09:16:56;;;;;;;7.07;4.20;;;;;;;;;;5066770;28;20039;-61
2021/10/27 09:41:05;;;;;;;3.90;3.20;;;;;;;;;;5064969;28;20025;-63
2021/10/27 10:05:09;;;;;;;3.85;2.40;;;;;;;;;;5070211;28;20055;-62
2021/10/27 10:07:35;;;;;;;3.00;2.47;;;;;;;;;;5068985;28;20085;-60
2021/10/27 10:10:05;;;;;;;2.20;1.35;;;;;;;;;;5069546;28;20029;-62
2021/10/27 10:12:35;;;;;;;2.45;1.23;;;;;;;;;;5069283;28;20017;-62
2021/10/27 10:15:00;;;;;;;2.22;2.03;;;;;;;;;;5066133;28;20028;-61
2021/10/27 10:17:25;;;;;;;3.28;2.55;;;;;;;;;;5069606;28;20051;-61
2021/10/27 10:19:51;;;;;;;3.53;2.55;;;;;;;;;;5069877;28;20032;-62
2021/10/27 10:22:27;;;;;;;2.05;1.63;;;;;;;;;;5068786;28;20023;-62
2021/10/27 10:24:52;;;;;;;2.67;2.22;;;;;;;;;;5069252;28;20016;-62
2021/10/27 10:27:34;;;;;;;3.25;1.20;;;;;;;;;;5063058;28;20065;-61
2021/10/27 10:30:03;;;;;;;2.45;2.25;;;;;;;;;;5066043;28;20536;-61
2021/10/27 10:32:30;;;;;;;2.83;2.53;;;;;;;;;;5067865;28;20055;-62
2021/10/27 10:34:56;;;;;;;2.20;1.50;;;;;;;;;;5069283;28;20118;-60
2021/10/27 10:37:36;;;;;;;3.53;1.80;;;;;;;;;;5068041;28;20594;-61
2021/10/27 10:40:25;;;;;;;2.85;1.90;;;;;;;;;;5069144;28;20025;-62
2021/10/27 10:42:57;;;;;;;3.53;1.70;;;;;;;;;;5068080;28;20544;-62
2021/10/27 10:57:34;;;;;;;3.25;1.33;;;;;;;;;;4963347;28;20031;-61
2021/10/27 11:40:07;;;;;;;0.68;0.60;;;;;;;;;;5068006;28;20038;-63
2021/10/27 11:42:40;;;;;;;1.42;0.40;;;;;;;;;;5066431;28;20094;-57
2021/10/27 11:45:24;;;;;;;1.88;0.60;;;;;;;;;;5065868;28;20032;-62
2021/10/27 11:47:53;;;;;;;1.38;0.63;;;;;;;;;;5068276;28;20066;-61
2021/10/27 11:50:20;;;;;;;2.47;1.02;;;;;;;;;;5059209;28;20094;-62
2021/10/27 11:52:47;;;;;;;1.10;0.60;;;;;;;;;;5057909;28;20033;-61
2021/10/27 11:55:13;;;;;;;0.68;0.40;;;;;;;;;;5067017;28;20109;-60
2021/10/27 11:57:41;;;;;;;0.73;0.52;;;;;;;;;;5062150;28;20109;-60
2021/10/27 12:00:09;;;;;;;0.50;0.43;;;;;;;;;;5062720;28;20071;-61
2021/10/27 12:02:51;;;;;;;1.08;0.55;;;;;;;;;;5063177;28;20032;-62
2021/10/27 12:05:23;;;;;;;1.15;0.50;;;;;;;;;;5066729;28;20027;-61
2021/10/27 12:08:07;;;;;;;1.75;0.68;;;;;;;;;;5064618;28;20031;-61
2021/10/27 12:10:44;;;;;;;3.17;1.20;;;;;;;;;;5067494;28;20020;-61
2021/10/27 12:13:17;;;;;;;1.48;0.90;;;;;;;;;;5067730;28;20040;-61
2021/10/27 12:16:57;;;;;;;1.00;0.73;;;;;;;;;;5063691;28;20404;-62
2021/10/27 12:18:36;;;;;;;1.45;0.52;;;;;;;;;;5055900;28;20036;-60
2021/10/27 12:21:02;;;;;;;1.08;0.80;;;;;;;;;;5061830;28;20024;-62
2021/10/27 12:23:29;;;;;;;1.17;0.77;;;;;;;;;;5057526;28;20032;-61
2021/10/27 12:26:04;;;;;;;2.10;0.82;;;;;;;;;;5058021;28;20075;-62
2021/10/27 12:28:33;;;;;;;1.52;0.90;;;;;;;;;;5061956;28;20043;-61
2021/10/27 12:31:12;;;;;;;1.55;1.13;;;;;;;;;;5062054;28;20447;-61
2021/10/27 12:33:38;;;;;;;2.42;1.83;;;;;;;;;;5067501;28;20025;-62
2021/10/27 12:36:33;;;;;;;2.17;1.58;;;;;;;;;;5064454;28;20040;-62
2021/10/27 12:39:17;;;;;;;1.58;1.17;;;;;;;;;;5066718;28;20031;-62
2021/10/27 12:41:48;;;;;;;1.92;1.40;;;;;;;;;;5067032;28;20029;-62
2021/10/27 12:44:24;;;;;;;4.60;1.92;;;;;;;;;;5067198;28;20016;-62
2021/10/27 12:47:26;;;;;;;1.60;1.50;;;;;;;;;;5058552;28;20021;-61
2021/10/27 12:50:08;;;;;;;1.95;1.70;;;;;;;;;;5054612;28;20048;-62
2021/10/27 12:52:36;;;;;;;2.30;1.50;;;;;;;;;;5053951;28;20036;-62
2021/10/27 12:55:05;;;;;;;2.90;1.67;;;;;;;;;;5053125;28;20097;-62
2021/10/27 12:57:40;;;;;;;1.95;1.60;;;;;;;;;;5050303;28;20410;-62
2021/10/27 13:00:27;;;;;;;1.83;1.45;;;;;;;;;;5054270;28;20056;-62
2021/10/27 13:06:05;;;;;;;1.75;1.65;;;;;;;;;;5053778;28;20538;-62
2021/10/27 13:14:02;;;;;;;2.05;1.85;;;;;;;;;;5054555;28;20063;-62
2021/10/27 13:19:23;;;;;;;2.08;1.73;;;;;;;;;;5053338;28;20175;-62
2021/10/27 13:30:03;;;;;;;2.50;2.30;;;;;;;;;;5069371;28;20172;-61
2021/10/27 13:32:30;;;;;;;2.33;2.22;;;;;;;;;;5070561;28;20064;-61
2021/10/27 13:34:55;;;;;;;2.75;2.55;;;;;;;;;;5071307;28;20033;-61
2021/10/27 13:37:20;;;;;;;3.22;2.88;;;;;;;;;;5070957;28;20485;-62
2021/10/27 13:39:48;;;;;;;2.05;1.95;;;;;;;;;;5070514;28;20087;-61
2021/10/27 13:42:25;;;;;;;3.47;2.80;;;;;;;;;;5057659;28;20023;-60
2021/10/27 13:45:02;;;;;;;3.05;2.85;;;;;;;;;;5071040;28;20113;-62
2021/10/27 13:47:34;;;;;;;2.90;2.70;;;;;;;;;;5071649;28;20122;-61
2021/10/27 14:06:47;;;;;;;1.92;1.80;;;;;;;;;;5012341;28;20473;-61
2021/10/27 14:09:58;;;;;;;2.63;2.08;;;;;;;;;;5027054;28;20033;-60
2021/10/27 14:14:34;;;;;;;2.55;2.38;;;;;;;;;;5025191;28;20046;-62
2021/10/27 14:19:46;;;;;;;2.45;2.25;;;;;;;;;;5027400;28;20185;-61
2021/10/27 14:39:15;;;;;;;3.90;3.00;;;;;;;;;;5031346;28;20132;-60
2021/10/27 15:44:00;;;;;;;1.58;1.20;;;;;;;;;;5062220;28;20105;-61
2021/10/27 15:51:42;;;;;;;1.70;1.60;;;;;;;;;;5067596;28;20089;-60
2021/10/27 15:54:07;;;;;;;1.50;1.40;;;;;;;;;;5067518;28;20024;-60
2021/10/27 15:56:34;;;;;;;2.00;1.25;;;;;;;;;;5071554;28;20021;-61
2021/10/27 15:58:59;;;;;;;2.05;1.20;;;;;;;;;;5065293;28;20025;-61
2021/10/27 16:01:24;;;;;;;2.40;1.25;;;;;;;;;;5071144;28;20494;-62
2021/10/27 16:03:50;;;;;;;1.35;1.25;;;;;;;;;;5070993;28;20107;-61
2021/10/27 16:06:22;;;;;;;1.42;0.77;;;;;;;;;;5071414;28;20460;-61
2021/10/27 16:08:50;;;;;;;1.30;1.20;;;;;;;;;;5070737;28;20028;-60
2021/10/27 16:11:15;;;;;;;1.63;1.20;;;;;;;;;;5069702;28;20029;-61
2021/10/27 16:13:40;;;;;;;2.50;1.00;;;;;;;;;;5071277;28;20100;-61
2021/10/27 16:16:06;;;;;;;1.88;1.50;;;;;;;;;;5069925;28;20036;-61
2021/10/27 16:18:32;;;;;;;1.30;1.20;;;;;;;;;;5069136;28;20055;-61
2021/10/27 16:20:58;;;;;;;2.42;1.17;;;;;;;;;;5070664;28;20067;-62
2021/10/27 16:23:23;;;;;;;1.60;1.20;;;;;;;;;;5070734;28;20012;-62
2021/10/27 16:25:49;;;;;;;1.83;1.25;;;;;;;;;;5071019;28;20390;-62
2021/10/27 16:28:15;;;;;;;1.98;1.00;;;;;;;;;;5066637;28;20044;-57
2021/10/27 16:30:40;;;;;;;1.67;1.17;;;;;;;;;;5070186;28;20031;-61
2021/10/27 16:33:06;;;;;;;1.65;1.08;;;;;;;;;;5069684;28;20021;-61
2021/10/27 16:35:33;;;;;;;2.65;1.05;;;;;;;;;;5054279;28;20031;-62
2021/10/27 16:37:59;;;;;;;1.40;1.23;;;;;;;;;;5070339;28;20028;-62
2021/10/27 16:40:24;;;;;;;1.75;1.00;;;;;;;;;;5067349;28;20020;-61
2021/10/27 16:42:50;;;;;;;1.75;0.80;;;;;;;;;;5071196;28;20032;-62
2021/10/27 16:45:16;;;;;;;1.13;0.73;;;;;;;;;;5069024;28;20447;-61
2021/10/27 16:47:41;;;;;;;0.80;0.73;;;;;;;;;;5072406;28;20035;-61
2021/10/27 16:50:08;;;;;;;1.20;0.73;;;;;;;;;;5071423;28;20465;-61
2021/10/27 16:52:34;;;;;;;2.08;0.80;;;;;;;;;;5071307;28;20036;-62
2021/10/27 16:54:59;;;;;;;1.25;0.60;;;;;;;;;;5071961;28;20033;-61
2021/10/27 16:57:27;;;;;;;1.60;0.50;;;;;;;;;;5068055;28;20040;-61
2021/10/27 16:59:53;;;;;;;0.70;0.50;;;;;;;;;;5068146;28;20029;-60
2021/10/27 17:02:18;;;;;;;1.23;0.80;;;;;;;;;;5071332;28;20090;-61
2021/10/27 17:04:43;;;;;;;0.98;0.63;;;;;;;;;;5072218;28;20025;-61
2021/10/27 17:07:08;;;;;;;2.05;0.70;;;;;;;;;;5070622;28;20104;-60
2021/10/27 17:09:34;;;;;;;3.10;0.50;;;;;;;;;;5070588;28;20020;-62
2021/10/27 17:12:00;;;;;;;2.08;0.90;;;;;;;;;;5070011;28;20035;-61
2021/10/27 17:14:25;;;;;;;1.10;0.63;;;;;;;;;;5070998;28;20032;-61
2021/10/27 17:16:50;;;;;;;1.75;0.70;;;;;;;;;;5070516;28;20033;-60
2021/10/27 17:19:15;;;;;;;2.47;0.88;;;;;;;;;;5072536;28;20025;-61
2021/10/27 17:21:42;;;;;;;1.75;1.15;;;;;;;;;;5070829;28;20486;-62
2021/10/27 17:24:08;;;;;;;2.88;1.40;;;;;;;;;;5070098;28;20073;-56
2021/10/27 17:26:34;;;;;;;1.60;1.20;;;;;;;;;;5071039;28;20028;-61
2021/10/27 17:29:01;;;;;;;1.75;1.33;;;;;;;;;;5066664;28;20048;-60
2021/10/27 17:31:26;;;;;;;2.25;1.45;;;;;;;;;;5070152;28;20033;-62
2021/10/27 17:33:51;;;;;;;2.85;1.35;;;;;;;;;;5071793;28;20040;-62
2021/10/27 17:36:17;;;;;;;1.50;1.40;;;;;;;;;;5071215;28;20484;-61
2021/10/27 17:38:43;;;;;;;3.85;2.83;;;;;;;;;;5070744;28;20082;-61
2021/10/27 17:41:09;;;;;;;3.80;2.30;;;;;;;;;;5068632;28;20048;-60
2021/10/27 17:43:35;;;;;;;3.55;1.45;;;;;;;;;;5065051;28;20025;-61
2021/10/27 17:46:04;;;;;;;2.58;1.67;;;;;;;;;;5068284;28;20464;-62
2021/10/27 17:48:37;;;;;;;1.63;1.50;;;;;;;;;;5071191;28;20021;-62
2021/10/27 17:51:08;;;;;;;2.95;1.75;;;;;;;;;;5065350;28;20024;-62
2021/10/27 17:58:44;;;;;;;1.92;1.40;;;;;;;;;;5062808;28;20031;-62
2021/10/27 18:01:14;;;;;;;1.95;1.70;;;;;;;;;;5070625;28;20028;-59
2021/10/27 18:03:46;;;;;;;2.28;1.65;;;;;;;;;;5074578;28;20025;-62
2021/10/27 18:06:15;;;;;;;2.03;1.70;;;;;;;;;;5075071;28;20044;-62
2021/10/27 18:08:43;;;;;;;3.35;2.15;;;;;;;;;;5074652;28;20031;-62
2021/10/27 18:11:11;;;;;;;2.55;2.00;;;;;;;;;;5073118;28;20021;-60
2021/10/27 18:13:43;;;;;;;4.68;3.50;;;;;;;;;;5073207;28;20012;-61
2021/10/27 18:21:42;;;;;;;3.10;2.80;;;;;;;;;;5074875;28;20056;-59
2021/10/27 18:37:27;;;;;;;3.17;2.67;;;;;;;;;;5070653;28;20043;-62
2021/10/27 18:39:59;;;;;;;3.72;3.08;;;;;;;;;;5073892;28;20033;-62
2021/10/27 18:42:29;;;;;;;3.97;2.70;;;;;;;;;;5074608;28;20035;-61
2021/10/27 18:44:54;;;;;;;3.65;3.33;;;;;;;;;;5073585;28;20081;-61
2021/10/27 18:47:22;;;;;;;5.35;3.20;;;;;;;;;;5074529;28;20461;-61
2021/10/27 18:49:47;;;;;;;3.58;3.25;;;;;;;;;;5073898;28;20514;-61
2021/10/27 18:52:26;;;;;;;5.43;4.15;;;;;;;;;;5073897;28;20028;-62
2021/10/27 18:54:55;;;;;;;6.30;4.63;;;;;;;;;;5074210;28;20115;-62
2021/10/27 18:57:34;;;;;;;4.13;3.78;;;;;;;;;;5070021;28;20529;-62
2021/10/27 19:03:28;;;;;;;6.28;5.43;;;;;;;;;;5073830;28;20388;-61
2021/10/27 19:15:59;;;;;;;6.20;5.60;;;;;;;;;;5067241;28;20028;-61
2021/10/27 19:18:24;;;;;;;8.45;7.55;;;;;;;;;;5073355;28;20025;-55
2021/10/27 19:20:52;;;;;;;11.23;7.47;;;;;;;;;;5073954;28;20020;-61
2021/10/27 19:23:19;;;;;;;13.55;9.10;;;;;;;;;;5073385;28;20443;-62
2021/10/27 19:26:01;;;;;;;10.25;7.97;;;;;;;;;;5092718;28;20031;-62
2021/10/27 19:33:55;;;;;;;12.05;9.18;;;;;;;;;;5073652;28;20040;-62
2021/10/27 20:08:32;;;;;;;10.30;8.17;;;;;;;;;;5069402;28;20074;-62
2021/10/27 20:53:23;;;;;;;7.38;6.45;;;;;;;;;;4990083;28;20042;-62
2021/10/27 20:55:51;;;;;;;8.38;7.20;;;;;;;;;;4990289;28;20530;-60
2021/10/27 21:14:20;;;;;;;12.25;9.55;;;;;;;;;;5025974;28;20076;-62
2021/10/27 21:16:45;;;;;;;10.70;8.48;;;;;;;;;;5042081;28;20051;-58
2021/10/27 21:19:10;;;;;;;8.52;7.35;;;;;;;;;;5072551;28;20017;-62
2021/10/27 21:21:36;;;;;;;9.68;8.57;;;;;;;;;;5091680;28;20028;-59
2021/10/27 21:24:01;;;;;;;10.25;8.75;;;;;;;;;;5071713;28;20537;-61